createdAt,value
2018-10-07T00:55:08.270Z,83.01
2018-10-07T00:57:41.198Z,83.79
2018-10-07T01:07:07.925Z,84.57
2018-10-07T01:09:43.307Z,83.72
2018-10-07T01:12:22.213Z,83.99
2018-10-07T01:15:01.274Z,83.92
2018-10-07T01:20:15.295Z,84.79
2018-10-07T01:22:46.916Z,84.52
2018-10-07T01:28:00.781Z,84.76
2018-10-07T01:30:29.750Z,84.22
2018-10-07T01:33:02.036Z,84.04
2018-10-07T01:35:48.506Z,84.48
2018-10-07T01:39:02.730Z,84.01
2018-10-07T01:41:59.951Z,83.78
2018-10-07T01:44:54.287Z,83.18
2018-10-07T01:47:40.819Z,83.78
2018-10-07T01:50:22.676Z,83.17
2018-10-07T01:53:05.685Z,82.85
2018-10-07T01:55:47.276Z,82.85
2018-10-07T01:58:24.358Z,83.57
2018-10-07T02:01:19.731Z,83.32
2018-10-07T02:06:55.791Z,84.00
2018-10-07T02:09:27.483Z,83.10
2018-10-07T02:12:14.154Z,83.81
2018-10-07T02:14:54.133Z,83.44
2018-10-07T02:20:41.182Z,83.52
2018-10-07T02:32:55.197Z,84.72
2018-10-07T02:38:30.298Z,84.46
2018-10-07T02:41:47.588Z,83.69
2018-10-07T02:51:28.020Z,83.17
2018-10-07T02:54:18.328Z,84.80
2018-10-07T02:56:48.685Z,85.66
2018-10-07T02:59:19.146Z,86.87
2018-10-07T03:01:51.883Z,86.87
2018-10-07T03:04:22.361Z,87.01
2018-10-07T03:06:52.101Z,87.30
2018-10-07T03:09:29.901Z,87.89
2018-10-07T03:12:03.523Z,88.34
2018-10-07T03:14:33.042Z,88.65
2018-10-07T03:17:01.569Z,87.86
2018-10-07T03:19:32.560Z,88.70
2018-10-07T03:22:03.261Z,89.29
2018-10-07T03:24:32.061Z,89.43
2018-10-07T03:27:00.565Z,89.63
2018-10-07T03:29:29.040Z,90.22
2018-10-07T03:31:58.077Z,90.66
2018-10-07T03:34:26.409Z,90.56
2018-10-07T03:36:54.574Z,90.16
2018-10-07T03:39:22.858Z,89.68
2018-10-07T03:41:53.423Z,88.62
2018-10-07T03:44:21.754Z,88.27
2018-10-07T03:46:51.284Z,88.38
2018-10-07T03:49:20.137Z,87.75
2018-10-07T03:51:49.026Z,87.77
2018-10-07T03:54:17.742Z,88.30
2018-10-07T03:56:46.069Z,88.02
2018-10-07T03:59:16.267Z,88.57
2018-10-07T04:01:46.911Z,87.88
2018-10-07T04:04:19.131Z,88.58
2018-10-07T04:06:50.123Z,88.66
2018-10-07T04:09:31.382Z,88.75
2018-10-07T04:12:06.415Z,88.39
2018-10-07T04:14:43.995Z,88.40
2018-10-07T04:17:15.486Z,88.29
2018-10-07T04:22:36.981Z,87.88
2018-10-07T04:25:07.453Z,87.34
2018-10-07T04:27:37.049Z,88.02
2018-10-07T04:30:07.489Z,87.74
2018-10-07T04:32:37.215Z,87.93
2018-10-07T04:35:06.333Z,85.71
2018-10-07T04:37:35.194Z,86.21
2018-10-07T04:40:06.560Z,86.86
2018-10-07T04:42:53.889Z,85.56
2018-10-07T04:45:25.624Z,85.45
2018-10-07T04:47:56.827Z,85.39
2018-10-07T04:50:29.994Z,85.75
2018-10-07T04:53:00.197Z,85.44
2018-10-07T04:55:29.592Z,86.62
2018-10-07T04:57:59.584Z,86.39
2018-10-07T05:00:31.687Z,85.48
2018-10-07T05:03:00.126Z,85.48
2018-10-07T05:05:28.857Z,85.12
2018-10-07T05:07:57.232Z,85.75
2018-10-07T05:10:39.420Z,86.08
2018-10-07T05:13:07.840Z,85.61
2018-10-07T05:15:36.765Z,85.47
2018-10-07T05:20:57.912Z,83.71
2018-10-07T05:23:28.075Z,85.44
2018-10-07T05:25:56.423Z,85.21
2018-10-07T05:28:27.668Z,85.40
2018-10-07T05:31:08.772Z,85.07
2018-10-07T05:33:55.575Z,84.01
2018-10-07T05:36:24.018Z,84.21
2018-10-07T05:38:53.008Z,83.89
2018-10-07T05:41:26.210Z,83.30
2018-10-07T05:44:09.666Z,83.39
2018-10-07T05:46:42.712Z,82.93
2018-10-07T05:49:13.721Z,82.85
2018-10-07T05:51:43.878Z,81.95
2018-10-07T05:54:12.409Z,83.03
2018-10-07T05:56:43.795Z,81.99
2018-10-07T06:13:09.637Z,82.50
2018-10-07T06:15:39.349Z,82.81
2018-10-07T06:18:08.123Z,82.58
2018-10-07T06:23:38.486Z,81.13
2018-10-07T06:39:43.541Z,79.94
2018-10-07T06:42:12.447Z,81.10
2018-10-07T06:44:40.707Z,80.67
2018-10-07T06:47:09.646Z,80.64
2018-10-07T06:49:45.134Z,79.35
2018-10-07T06:52:23.386Z,78.67
2018-10-07T06:54:56.066Z,78.85
2018-10-07T07:00:45.626Z,77.10
2018-10-07T07:03:17.368Z,76.65
2018-10-07T07:05:46.426Z,76.05
2018-10-07T07:08:50.414Z,72.73
2018-10-07T07:11:22.729Z,69.62
2018-10-07T07:14:01.780Z,66.41
2018-10-07T07:16:30.680Z,65.30
2018-10-07T07:19:00.071Z,61.77
2018-10-07T07:21:46.638Z,62.34
2018-10-07T07:25:31.890Z,59.50
2018-10-07T07:28:18.710Z,56.91
2018-10-07T07:36:58.552Z,55.66
2018-10-07T07:47:43.513Z,54.83
2018-10-07T07:50:35.168Z,53.78
2018-10-07T07:53:05.979Z,52.04
2018-10-07T07:55:36.837Z,52.56
2018-10-07T08:28:25.641Z,58.33
2018-10-07T08:31:10.652Z,59.80
2018-10-07T08:34:16.333Z,58.55
2018-10-07T08:43:42.892Z,59.80
2018-10-07T08:46:43.172Z,60.74
2018-10-07T08:49:43.375Z,58.59
2018-10-07T08:55:00.919Z,57.63
2018-10-07T08:57:46.511Z,58.57
2018-10-07T09:00:27.582Z,59.22
2018-10-07T09:03:19.102Z,57.51
2018-10-07T09:10:08.530Z,58.97
2018-10-07T09:12:43.181Z,58.72
2018-10-07T09:15:41.867Z,59.69
2018-10-07T09:18:49.856Z,60.18
2018-10-07T09:21:38.287Z,59.44
2018-10-07T09:51:33.501Z,57.09
2018-10-07T09:54:08.409Z,57.79
2018-10-07T09:56:41.655Z,57.41
2018-10-07T09:59:29.370Z,57.52
2018-10-07T10:02:43.578Z,60.16
2018-10-07T10:05:27.189Z,58.77
2018-10-07T10:10:49.021Z,58.06
2018-10-07T10:13:38.956Z,58.23
2018-10-07T10:16:16.161Z,58.17
2018-10-07T10:18:59.773Z,58.03
2018-10-07T10:21:39.140Z,57.58
2018-10-07T10:26:25.760Z,58.45
2018-10-07T10:29:19.341Z,57.90
2018-10-07T12:22:26.049Z,51.84
2018-10-07T12:24:54.512Z,51.26
2018-10-07T12:27:22.929Z,52.11
2018-10-07T12:29:51.317Z,51.74
2018-10-07T12:32:19.637Z,53.23
2018-10-07T12:34:47.926Z,51.57
2018-10-07T12:37:16.252Z,54.13
2018-10-07T12:39:44.424Z,51.82
2018-10-07T12:42:13.283Z,51.03
2018-10-07T12:44:41.880Z,51.36
2018-10-07T12:47:10.152Z,52.73
2018-10-07T12:49:38.404Z,51.96
2018-10-07T12:52:06.929Z,51.35
2018-10-07T12:54:35.282Z,51.09
2018-10-07T12:57:03.490Z,50.86
2018-10-07T12:59:31.670Z,54.42
2018-10-07T13:01:59.870Z,53.03
2018-10-07T13:04:28.190Z,52.20
2018-10-07T13:06:56.670Z,54.98
2018-10-07T13:09:24.913Z,51.12
2018-10-07T13:11:53.253Z,51.16
2018-10-07T13:15:03.184Z,51.63
2018-10-07T13:20:45.885Z,51.67
2018-10-07T13:23:19.172Z,53.64
2018-10-07T13:25:57.925Z,52.48
2018-10-07T13:28:38.253Z,50.43
2018-10-07T18:36:47.947Z,74.82
2018-10-07T18:39:23.587Z,74.66
2018-10-07T18:41:52.130Z,75.07
2018-10-07T18:44:20.779Z,75.58
2018-10-07T18:46:50.637Z,76.35
2018-10-07T18:49:21.400Z,76.73
2018-10-07T18:51:50.279Z,76.03
2018-10-07T18:54:18.763Z,76.01
2018-10-07T18:56:47.220Z,76.05
2018-10-07T18:59:15.614Z,75.99
2018-10-07T19:01:44.077Z,77.39
2018-10-07T19:04:12.464Z,77.70
2018-10-07T19:06:40.832Z,76.85
2018-10-07T19:09:10.302Z,76.04
2018-10-07T19:11:38.717Z,76.62
2018-10-07T19:14:07.330Z,76.70
2018-10-07T19:16:36.032Z,77.11
2018-10-07T19:19:04.508Z,76.85
2018-10-07T19:21:32.912Z,77.92
2018-10-07T19:24:01.624Z,78.10
2018-10-07T19:26:29.937Z,78.06
2018-10-07T19:29:04.985Z,78.50
2018-10-07T19:31:33.273Z,78.96
2018-10-07T19:34:01.698Z,79.52
2018-10-07T19:36:29.858Z,78.66
2018-10-07T19:38:57.948Z,78.80
2018-10-07T19:41:26.013Z,78.87
2018-10-07T19:43:54.251Z,79.69
2018-10-07T19:46:22.632Z,80.36
2018-10-07T19:48:50.745Z,80.25
2018-10-07T19:51:18.833Z,79.78
2018-10-07T19:53:47.576Z,79.32
2018-10-07T19:56:15.962Z,79.39
2018-10-07T19:58:44.256Z,80.36
2018-10-07T20:01:12.436Z,80.17
2018-10-07T20:03:40.600Z,80.01
2018-10-07T20:06:08.871Z,79.06
2018-10-07T20:08:37.076Z,80.09
2018-10-07T20:11:05.250Z,80.61
2018-10-07T20:13:33.591Z,80.99
2018-10-07T20:16:01.665Z,80.99
2018-10-07T20:18:30.085Z,81.56
2018-10-07T20:20:58.109Z,80.73
2018-10-07T20:23:26.434Z,81.75
2018-10-07T20:25:54.504Z,82.22
2018-10-07T20:28:22.562Z,81.82
2018-10-07T20:30:50.695Z,81.94
2018-10-07T20:33:18.804Z,81.46
2018-10-07T20:35:46.965Z,82.18
2018-10-07T20:38:15.031Z,82.29
2018-10-07T20:40:43.035Z,82.89
2018-10-07T20:43:11.204Z,81.90
2018-10-07T20:45:39.277Z,81.68
2018-10-07T20:48:07.313Z,81.59
2018-10-07T20:50:35.636Z,81.12
2018-10-07T20:53:03.976Z,81.82
2018-10-07T20:55:32.216Z,81.47
2018-10-07T20:58:00.477Z,81.49
2018-10-07T21:00:28.816Z,81.77
2018-10-07T21:02:56.997Z,82.15
2018-10-07T21:05:25.244Z,82.08
2018-10-07T21:07:53.576Z,82.29
2018-10-07T22:17:53.533Z,84.13
2018-10-07T22:29:48.853Z,83.64
2018-10-07T22:46:49.853Z,85.23
2018-10-07T23:32:49.166Z,84.48
2018-10-07T23:38:20.195Z,83.76
2018-10-07T23:41:13.203Z,83.58
2018-10-07T23:48:03.937Z,83.47
